Time;durP1;ratioP1;P1;durP2;ratioP2;P2;SDS_P1;SDS_P2;PMS_P1;PMS_P2;Temp;Humidity;BMP_temperature;BMP_pressure;BME280_temperature;BME280_humidity;BME280_pressure;Samples;Min_cycle;Max_cycle;Signal;HPM_P1;HPM_P2
2022/03/27 00:00:37;;;;;;;;;;;;;;;19.27;55.80;99641.97;2055223;28;19922;-50
2022/03/27 00:01:39;;;;;;;;;;;;;;;19.27;55.72;99636.59;2056646;28;20024;-51
2022/03/27 00:02:41;;;;;;;;;;;;;;;19.26;55.85;99640.31;2059788;28;19921;-51
2022/03/27 00:03:42;;;;;;;;;;;;;;;19.27;55.47;99641.13;2057726;28;19996;-50
2022/03/27 00:04:43;;;;;;;;;;;;;;;19.27;55.90;99641.13;2056315;28;20332;-51
2022/03/27 00:05:44;;;;;;;;;;;;;;;19.26;55.69;99640.31;2055438;28;19934;-53
2022/03/27 00:06:45;;;;;;;;;;;;;;;19.26;55.81;99636.78;2052736;28;19928;-50
2022/03/27 00:07:46;;;;;;;;;;;;;;;19.24;55.87;99636.94;2057206;28;20012;-51
2022/03/27 00:08:47;;;;;;;;;;;;;;;19.24;55.78;99639.66;2056169;28;19936;-52
2022/03/27 00:09:48;;;;;;;;;;;;;;;19.24;55.78;99636.94;2055844;28;20021;-51
2022/03/27 00:12:10;;;;;;;;;;;;;;;19.24;55.84;99647.72;2056424;28;19922;-49
2022/03/27 00:13:10;;;;;;;;;;;;;;;19.24;55.97;99638.81;2054864;28;19929;-51
2022/03/27 00:14:12;;;;;;;;;;;;;;;19.23;55.88;99631.78;2057948;28;19925;-51
2022/03/27 00:15:12;;;;;;;;;;;;;;;19.22;55.95;99636.28;2056044;28;19926;-58
2022/03/27 00:16:14;;;;;;;;;;;;;;;19.22;56.12;99644.34;2056423;28;19922;-54
2022/03/27 00:17:15;;;;;;;;;;;;;;;19.22;55.96;99636.28;2057806;28;20039;-52
2022/03/27 00:18:16;;;;;;;;;;;;;;;19.23;55.93;99639.84;2057026;28;19921;-54
2022/03/27 00:19:18;;;;;;;;;;;;;;;19.21;55.79;99631.94;2053774;28;20012;-60
2022/03/27 00:20:18;;;;;;;;;;;;;;;19.21;55.79;99629.25;2059498;28;19922;-56
2022/03/27 00:21:20;;;;;;;;;;;;;;;19.20;55.98;99638.34;2057144;28;19922;-53
2022/03/27 00:22:22;;;;;;;;;;;;;;;19.22;56.03;99630.91;2053144;28;19933;-51
2022/03/27 00:23:24;;;;;;;;;;;;;;;19.20;55.96;99627.59;2057155;28;19922;-58
2022/03/27 00:24:24;;;;;;;;;;;;;;;19.19;56.01;99632.16;2056708;28;19922;-55
2022/03/27 00:25:26;;;;;;;;;;;;;;;19.19;56.19;99623.22;2052755;28;19976;-53
2022/03/27 00:26:28;;;;;;;;;;;;;;;19.19;55.79;99628.59;2055948;28;19933;-55
2022/03/27 00:27:29;;;;;;;;;;;;;;;19.20;55.61;99630.28;2057212;28;19922;-50
2022/03/27 00:28:32;;;;;;;;;;;;;;;19.19;56.01;99625.91;2056852;28;20044;-55
2022/03/27 00:29:33;;;;;;;;;;;;;;;19.18;55.80;99624.25;2055830;28;19928;-54
2022/03/27 00:30:34;;;;;;;;;;;;;;;19.17;55.94;99623.41;2052594;28;19933;-55
2022/03/27 00:31:37;;;;;;;;;;;;;;;19.18;56.05;99621.56;2059144;28;19922;-55
2022/03/27 00:32:38;;;;;;;;;;;;;;;19.17;55.88;99618.03;2053568;28;19930;-57
2022/03/27 00:33:41;;;;;;;;;;;;;;;19.18;55.53;99621.56;2055236;28;20332;-50
2022/03/27 00:34:42;;;;;;;;;;;;;;;19.17;55.60;99625.28;2055338;28;20373;-52
2022/03/27 00:35:43;;;;;;;;;;;;;;;19.17;55.74;99625.28;2059082;28;20313;-51
2022/03/27 00:36:45;;;;;;;;;;;;;;;19.17;55.71;99630.66;2056088;28;19929;-50
2022/03/27 00:37:45;;;;;;;;;;;;;;;19.16;55.79;99620.91;2057724;28;19926;-51
2022/03/27 00:38:47;;;;;;;;;;;;;;;19.15;55.89;99621.94;2055007;28;19925;-48
2022/03/27 00:39:47;;;;;;;;;;;;;;;19.16;55.65;99618.22;2055360;28;19921;-59
2022/03/27 00:40:50;;;;;;;;;;;;;;;19.15;55.90;99619.25;2054602;28;19925;-53
2022/03/27 00:41:52;;;;;;;;;;;;;;;19.15;55.80;99617.38;2056327;28;19945;-55
2022/03/27 00:42:53;;;;;;;;;;;;;;;19.14;55.67;99617.56;2056827;28;20573;-57
2022/03/27 00:43:54;;;;;;;;;;;;;;;19.14;55.77;99617.56;2055330;28;19922;-57
2022/03/27 00:44:55;;;;;;;;;;;;;;;19.13;55.81;99613.19;2056960;28;19936;-51
2022/03/27 00:45:56;;;;;;;;;;;;;;;19.15;55.79;99621.94;2057762;28;19957;-57
2022/03/27 00:46:58;;;;;;;;;;;;;;;19.13;55.88;99619.41;2056093;28;19922;-50
2022/03/27 00:47:58;;;;;;;;;;;;;;;19.13;55.78;99615.88;2058368;28;19925;-56
2022/03/27 00:49:00;;;;;;;;;;;;;;;19.12;55.70;99616.91;2051443;28;19930;-56
2022/03/27 00:50:00;;;;;;;;;;;;;;;19.12;55.86;99619.59;2051959;28;19926;-51
2022/03/27 00:51:02;;;;;;;;;;;;;;;19.11;55.71;99618.78;2056042;28;19955;-50
2022/03/27 00:52:03;;;;;;;;;;;;;;;19.12;55.58;99616.91;2052492;28;19925;-53
2022/03/27 00:53:05;;;;;;;;;;;;;;;19.12;55.86;99606.16;2055504;28;20078;-49
2022/03/27 00:54:05;;;;;;;;;;;;;;;19.11;55.70;99618.78;2056105;28;19976;-51
2022/03/27 00:55:07;;;;;;;;;;;;;;;19.10;55.59;99610.88;2054471;28;20588;-52
2022/03/27 00:56:07;;;;;;;;;;;;;;;19.10;56.21;99613.56;2055691;28;20832;-52
2022/03/27 00:57:11;;;;;;;;;;;;;;;19.10;55.92;99617.09;2058759;28;19980;-47
2022/03/27 00:58:12;;;;;;;;;;;;;;;19.09;55.83;99617.28;2055723;28;19926;-50
2022/03/27 00:59:14;;;;;;;;;;;;;;;19.09;55.88;99606.53;2053452;28;19925;-50
2022/03/27 01:00:18;;;;;;;;;;;;;;;19.08;55.79;99611.03;2055231;28;19950;-49
2022/03/27 01:01:23;;;;;;;;;;;;;;;19.08;55.69;99608.34;2054913;28;19922;-50
2022/03/27 01:02:25;;;;;;;;;;;;;;;19.08;55.65;99605.66;2057120;28;20490;-50
2022/03/27 01:03:27;;;;;;;;;;;;;;;19.09;55.96;99606.53;2054927;28;19971;-50
2022/03/27 01:04:27;;;;;;;;;;;;;;;19.09;55.70;99607.34;2058103;28;19995;-51
2022/03/27 01:05:29;;;;;;;;;;;;;;;19.08;55.70;99610.22;2057181;28;19921;-51
2022/03/27 01:06:31;;;;;;;;;;;;;;;19.08;55.87;99604.84;2056249;28;19977;-49
2022/03/27 01:07:32;;;;;;;;;;;;;;;19.07;55.72;99606.69;2054473;28;19928;-49
2022/03/27 01:09:55;;;;;;;;;;;;;;;19.05;55.77;99602.53;2056829;28;20021;-51
2022/03/27 01:10:56;;;;;;;;;;;;;;;19.05;55.86;99603.34;2051770;28;19948;-51
2022/03/27 01:12:05;;;;;;;;;;;;;;;19.05;55.81;99606.03;2057230;28;19972;-52
2022/03/27 01:13:08;;;;;;;;;;;;;;;19.05;55.64;99599.84;2054383;28;19972;-48
2022/03/27 01:14:09;;;;;;;;;;;;;;;19.05;55.74;99597.97;2055757;28;20090;-51
2022/03/27 01:15:22;;;;;;;;;;;;;;;19.05;55.64;99599.84;2058514;28;19930;-47
2022/03/27 01:16:32;;;;;;;;;;;;;;;19.04;55.89;99604.38;2056235;28;20443;-51
2022/03/27 01:17:34;;;;;;;;;;;;;;;19.04;55.96;99603.53;2057113;28;19925;-51
2022/03/27 01:18:35;;;;;;;;;;;;;;;19.03;56.08;99604.53;2053000;28;19925;-51
2022/03/27 01:19:39;;;;;;;;;;;;;;;19.03;55.78;99601.84;2053544;28;20406;-50
2022/03/27 01:20:41;;;;;;;;;;;;;;;19.02;55.79;99595.66;2057589;28;20488;-51
2022/03/27 01:21:44;;;;;;;;;;;;;;;19.03;56.13;99601.84;2053924;28;19972;-49
2022/03/27 01:22:45;;;;;;;;;;;;;;;19.02;55.74;99594.81;2058684;28;19926;-50
2022/03/27 01:23:46;;;;;;;;;;;;;;;19.02;56.12;99594.81;2054823;28;19928;-50
2022/03/27 01:24:48;;;;;;;;;;;;;;;19.01;55.83;99587.78;2059432;28;19928;-49
2022/03/27 01:25:49;;;;;;;;;;;;;;;19.02;56.11;99592.13;2054684;28;19922;-50
2022/03/27 01:26:50;;;;;;;;;;;;;;;19.02;55.95;99594.81;2055964;28;19922;-50
2022/03/27 01:27:52;;;;;;;;;;;;;;;19.01;56.07;99593.16;2051355;28;20003;-50
2022/03/27 01:28:52;;;;;;;;;;;;;;;19.00;55.95;99589.66;2057746;28;20016;-49
2022/03/27 01:29:55;;;;;;;;;;;;;;;19.00;55.98;99592.34;2056153;28;19956;-46
2022/03/27 01:30:57;;;;;;;;;;;;;;;18.99;55.67;99587.94;2057350;28;19926;-51
2022/03/27 01:31:59;;;;;;;;;;;;;;;19.00;55.98;99591.47;2054767;28;19925;-51
2022/03/27 01:33:00;;;;;;;;;;;;;;;19.00;56.06;99586.09;2054162;28;20308;-50
2022/03/27 01:34:01;;;;;;;;;;;;;;;19.00;55.94;99586.97;2057030;28;19922;-51
2022/03/27 01:35:02;;;;;;;;;;;;;;;18.99;55.71;99585.25;2055560;28;20020;-50
2022/03/27 01:36:05;;;;;;;;;;;;;;;18.98;55.71;99587.13;2050120;28;19922;-49
2022/03/27 01:37:06;;;;;;;;;;;;;;;19.00;56.00;99586.97;2053701;28;20635;-50
2022/03/27 01:38:08;;;;;;;;;;;;;;;18.99;55.61;99585.25;2052889;28;19929;-49
2022/03/27 01:39:09;;;;;;;;;;;;;;;18.98;55.80;99583.59;2050320;28;19938;-50
2022/03/27 01:40:11;;;;;;;;;;;;;;;18.96;56.01;99575.72;2052953;28;19975;-49
2022/03/27 01:41:11;;;;;;;;;;;;;;;18.96;55.80;99586.47;2056733;28;19975;-49
2022/03/27 01:42:13;;;;;;;;;;;;;;;18.97;55.96;99580.09;2054454;28;19988;-49
2022/03/27 01:43:14;;;;;;;;;;;;;;;18.98;55.82;99581.75;2056181;28;20400;-52
2022/03/27 01:44:17;;;;;;;;;;;;;;;18.98;56.15;99578.22;2052173;28;20396;-50
2022/03/27 01:45:18;;;;;;;;;;;;;;;18.97;55.90;99577.41;2054566;28;19937;-49
2022/03/27 01:46:20;;;;;;;;;;;;;;;18.96;55.83;99585.63;2051175;28;20400;-50
2022/03/27 01:47:21;;;;;;;;;;;;;;;18.97;55.94;99576.53;2051480;28;20678;-49
2022/03/27 01:48:22;;;;;;;;;;;;;;;18.97;55.85;99585.47;2053780;28;19976;-53
2022/03/27 01:49:24;;;;;;;;;;;;;;;18.96;55.80;99581.09;2051728;28;20013;-49
2022/03/27 01:50:25;;;;;;;;;;;;;;;18.96;55.75;99581.09;2054344;28;20053;-51
2022/03/27 01:51:28;;;;;;;;;;;;;;;18.95;55.87;99584.81;2053709;28;20061;-49
2022/03/27 01:52:29;;;;;;;;;;;;;;;18.95;55.77;99582.13;2054924;28;19922;-50
2022/03/27 01:53:31;;;;;;;;;;;;;;;18.94;55.85;99583.16;2053620;28;19957;-53
2022/03/27 01:54:32;;;;;;;;;;;;;;;18.92;56.08;99577.09;2055001;28;19932;-49
2022/03/27 01:55:33;;;;;;;;;;;;;;;18.92;56.09;99579.78;2054783;28;19932;-51
2022/03/27 01:56:36;;;;;;;;;;;;;;;18.93;55.95;99580.63;2053366;28;20786;-49
2022/03/27 01:57:37;;;;;;;;;;;;;;;18.93;56.14;99576.09;2054054;28;20439;-51
2022/03/27 01:58:39;;;;;;;;;;;;;;;18.92;56.05;99579.78;2053566;28;19984;-51
2022/03/27 01:59:40;;;;;;;;;;;;;;;18.92;55.83;99577.09;2049215;28;22796;-49
2022/03/27 02:00:43;;;;;;;;;;;;;;;18.94;56.13;99576.91;2051321;28;19933;-50
2022/03/27 02:01:44;;;;;;;;;;;;;;;18.94;55.94;99574.22;2053815;28;19922;-52
2022/03/27 02:02:45;;;;;;;;;;;;;;;18.93;55.88;99577.94;2054644;28;20028;-53
2022/03/27 02:03:46;;;;;;;;;;;;;;;18.93;55.99;99578.78;2052592;28;19925;-49
2022/03/27 02:04:47;;;;;;;;;;;;;;;18.92;55.88;99579.78;2054202;28;20246;-50
2022/03/27 02:05:49;;;;;;;;;;;;;;;18.92;55.85;99573.59;2052393;28;19928;-57
2022/03/27 02:06:51;;;;;;;;;;;;;;;18.92;55.83;99574.41;2055452;28;20388;-51
2022/03/27 02:07:52;;;;;;;;;;;;;;;18.91;56.02;99572.72;2056372;28;19930;-49
2022/03/27 02:08:54;;;;;;;;;;;;;;;18.92;55.89;99576.28;2054417;28;19921;-52
2022/03/27 02:09:54;;;;;;;;;;;;;;;18.91;55.78;99571.91;2051948;28;19922;-52
2022/03/27 02:10:56;;;;;;;;;;;;;;;18.90;55.90;99571.06;2056219;28;20458;-52
2022/03/27 02:11:57;;;;;;;;;;;;;;;18.90;56.20;99571.06;2052602;28;20480;-54
2022/03/27 02:12:58;;;;;;;;;;;;;;;18.89;56.03;99569.41;2054209;28;19931;-52
2022/03/27 02:13:59;;;;;;;;;;;;;;;18.89;56.16;99569.41;2048616;28;20399;-52
2022/03/27 02:15:00;;;;;;;;;;;;;;;18.88;55.88;99573.09;2056503;28;19929;-51
2022/03/27 02:16:03;;;;;;;;;;;;;;;18.89;55.83;99571.28;2053025;28;19928;-49
2022/03/27 02:17:04;;;;;;;;;;;;;;;18.88;55.92;99573.09;2057833;28;20418;-48
2022/03/27 02:18:05;;;;;;;;;;;;;;;18.90;56.16;99581.00;2053808;28;20003;-49
2022/03/27 02:19:09;;;;;;;;;;;;;;;18.88;56.18;99565.03;2055530;28;19926;-52
2022/03/27 02:20:12;;;;;;;;;;;;;;;18.88;55.84;99569.59;2053477;28;19922;-50
2022/03/27 02:21:13;;;;;;;;;;;;;;;18.87;56.25;99567.94;2050376;28;20434;-50
2022/03/27 02:22:15;;;;;;;;;;;;;;;18.86;56.04;99568.91;2051237;28;19933;-53
2022/03/27 02:23:17;;;;;;;;;;;;;;;18.87;55.92;99565.22;2057581;28;19948;-51
2022/03/27 02:24:17;;;;;;;;;;;;;;;18.85;56.09;99559.19;2056006;28;19926;-51
2022/03/27 02:25:20;;;;;;;;;;;;;;;18.86;56.13;99566.22;2056526;28;19943;-52
2022/03/27 02:26:22;;;;;;;;;;;;;;;18.85;56.00;99568.09;2055030;28;20337;-52
2022/03/27 02:27:22;;;;;;;;;;;;;;;18.84;55.96;99555.69;2054348;28;20018;-51
2022/03/27 02:28:24;;;;;;;;;;;;;;;18.84;55.93;99561.06;2054303;28;19937;-50
2022/03/27 02:29:25;;;;;;;;;;;;;;;18.85;55.78;99562.72;2053061;28;20421;-51
2022/03/27 02:30:26;;;;;;;;;;;;;;;18.84;56.15;99565.59;2053314;28;19926;-49
2022/03/27 02:31:28;;;;;;;;;;;;;;;18.85;55.80;99569.94;2054389;28;19929;-50
2022/03/27 02:32:28;;;;;;;;;;;;;;;18.84;56.13;99569.13;2053604;28;19922;-51
2022/03/27 02:33:30;;;;;;;;;;;;;;;18.84;56.04;99565.59;2052782;28;20367;-53
2022/03/27 02:34:30;;;;;;;;;;;;;;;18.82;56.10;99555.03;2052168;28;19922;-49
2022/03/27 02:35:32;;;;;;;;;;;;;;;18.79;56.05;99555.38;2054248;28;19972;-50
2022/03/27 02:36:33;;;;;;;;;;;;;;;18.82;56.13;99565.78;2056298;28;20020;-52
2022/03/27 02:37:36;;;;;;;;;;;;;;;18.83;56.06;99570.13;2056646;28;20423;-49
2022/03/27 02:38:38;;;;;;;;;;;;;;;18.82;55.82;99567.63;2052674;28;19926;-49
2022/03/27 02:39:38;;;;;;;;;;;;;;;18.81;56.07;99561.44;2055880;28;19933;-49
2022/03/27 02:40:40;;;;;;;;;;;;;;;18.82;56.22;99563.09;2054315;28;19926;-52
2022/03/27 02:41:41;;;;;;;;;;;;;;;18.83;56.21;99563.91;2053748;28;19926;-51
2022/03/27 02:42:42;;;;;;;;;;;;;;;18.82;56.12;99567.63;2048454;28;19930;-52
2022/03/27 02:43:44;;;;;;;;;;;;;;;18.80;55.96;99557.03;2058127;28;19926;-51
2022/03/27 02:44:45;;;;;;;;;;;;;;;18.80;56.07;99558.91;2053644;28;19989;-49
2022/03/27 02:45:48;;;;;;;;;;;;;;;18.81;55.98;99558.75;2055774;28;19926;-51
2022/03/27 02:46:48;;;;;;;;;;;;;;;18.79;55.85;99558.06;2053490;28;19961;-51
2022/03/27 02:47:50;;;;;;;;;;;;;;;18.78;56.01;99564.47;2051370;28;19925;-52
2022/03/27 02:48:51;;;;;;;;;;;;;;;18.79;56.08;99558.06;2054754;28;19929;-49
2022/03/27 02:49:52;;;;;;;;;;;;;;;18.78;56.35;99566.31;2058535;28;19930;-52
2022/03/27 02:50:53;;;;;;;;;;;;;;;18.78;56.14;99556.41;2057565;28;20303;-51
2022/03/27 02:51:54;;;;;;;;;;;;;;;18.78;56.11;99558.25;2055588;28;19922;-53
2022/03/27 02:52:57;;;;;;;;;;;;;;;18.79;56.00;99558.06;2059791;28;19926;-49
2022/03/27 02:53:57;;;;;;;;;;;;;;;18.77;55.89;99557.41;2056613;28;20343;-50
2022/03/27 02:54:59;;;;;;;;;;;;;;;18.77;56.15;99557.41;2059797;28;19926;-52
2022/03/27 02:55:59;;;;;;;;;;;;;;;18.76;55.94;99555.75;2057448;28;19922;-52
2022/03/27 02:57:01;;;;;;;;;;;;;;;18.75;56.14;99546.03;2056921;28;20639;-49
2022/03/27 02:58:02;;;;;;;;;;;;;;;18.76;56.12;99553.06;2056259;28;19925;-51
2022/03/27 02:59:04;;;;;;;;;;;;;;;18.75;56.22;99552.25;2056686;28;20016;-52
2022/03/27 03:00:06;;;;;;;;;;;;;;;18.75;56.05;99556.78;2059583;28;19972;-49
2022/03/27 03:01:08;;;;;;;;;;;;;;;18.74;55.99;99557.78;2057510;28;19922;-49
2022/03/27 03:02:09;;;;;;;;;;;;;;;18.75;56.25;99556.78;2055898;28;19922;-52
2022/03/27 03:03:12;;;;;;;;;;;;;;;18.74;56.09;99555.91;2053453;28;19984;-52
2022/03/27 03:04:14;;;;;;;;;;;;;;;18.72;56.06;99557.94;2057281;28;19932;-52
2022/03/27 03:05:16;;;;;;;;;;;;;;;18.73;56.02;99558.78;2057331;28;20004;-50
2022/03/27 03:06:19;;;;;;;;;;;;;;;18.72;56.19;99555.25;2057837;28;19926;-50
2022/03/27 03:07:20;;;;;;;;;;;;;;;18.71;56.09;99555.44;2058140;28;20458;-54
2022/03/27 03:08:27;;;;;;;;;;;;;;;18.70;56.15;99562.66;2052986;28;19922;-52
2022/03/27 03:09:28;;;;;;;;;;;;;;;18.71;56.22;99558.94;2060226;28;20481;-50
2022/03/27 03:10:30;;;;;;;;;;;;;;;18.71;56.17;99552.75;2055911;28;19921;-52
2022/03/27 03:11:30;;;;;;;;;;;;;;;18.71;56.04;99552.75;2060151;28;19936;-49
2022/03/27 03:12:32;;;;;;;;;;;;;;;18.70;56.27;99554.59;2058027;28;19993;-49
2022/03/27 03:13:32;;;;;;;;;;;;;;;18.70;56.19;99553.78;2055693;28;19984;-49
2022/03/27 03:14:34;;;;;;;;;;;;;;;18.69;56.34;99552.09;2058138;28;19921;-51
2022/03/27 03:15:35;;;;;;;;;;;;;;;18.69;56.14;99552.94;2058571;28;19971;-51
2022/03/27 03:16:38;;;;;;;;;;;;;;;18.69;56.03;99552.09;2057092;28;19930;-52
2022/03/27 03:17:39;;;;;;;;;;;;;;;18.70;56.25;99551.09;2053649;28;19949;-50
2022/03/27 03:18:40;;;;;;;;;;;;;;;18.69;56.00;99558.31;2053318;28;20850;-50
2022/03/27 03:19:41;;;;;;;;;;;;;;;18.69;56.16;99562.81;2056725;28;19922;-49
2022/03/27 03:20:43;;;;;;;;;;;;;;;18.68;56.16;99555.78;2057447;28;19932;-52
2022/03/27 03:21:43;;;;;;;;;;;;;;;18.68;56.03;99555.78;2058144;28;19922;-49
2022/03/27 03:22:45;;;;;;;;;;;;;;;18.67;56.00;99554.97;2059977;28;19929;-51
2022/03/27 03:23:47;;;;;;;;;;;;;;;18.66;56.18;99558.66;2056756;28;22045;-55
2022/03/27 03:24:49;;;;;;;;;;;;;;;18.66;55.97;99553.28;2053236;28;19930;-55
2022/03/27 03:25:50;;;;;;;;;;;;;;;18.66;56.10;99555.13;2056121;28;19929;-52
2022/03/27 03:26:52;;;;;;;;;;;;;;;18.68;56.11;99556.63;2056937;28;19988;-53
2022/03/27 03:27:52;;;;;;;;;;;;;;;18.66;56.35;99553.28;2058917;28;20494;-51
2022/03/27 03:28:54;;;;;;;;;;;;;;;18.67;56.01;99559.50;2057117;28;19929;-53
2022/03/27 03:29:54;;;;;;;;;;;;;;;18.65;56.31;99551.63;2058881;28;19926;-52
2022/03/27 03:30:56;;;;;;;;;;;;;;;18.65;56.50;99559.69;2054347;28;20073;-51
2022/03/27 03:31:57;;;;;;;;;;;;;;;18.64;56.21;99560.72;2054513;28;19957;-52
2022/03/27 03:32:58;;;;;;;;;;;;;;;18.64;56.24;99557.19;2055445;28;20398;-49
2022/03/27 03:33:59;;;;;;;;;;;;;;;18.65;56.19;99558.84;2056847;28;19921;-51
2022/03/27 03:35:01;;;;;;;;;;;;;;;18.64;56.36;99565.25;2056612;28;20300;-50
2022/03/27 03:36:01;;;;;;;;;;;;;;;18.63;56.37;99559.00;2057056;28;20454;-49
2022/03/27 03:37:03;;;;;;;;;;;;;;;18.62;56.24;99551.16;2056280;28;20016;-52
2022/03/27 03:38:04;;;;;;;;;;;;;;;18.62;56.34;99556.53;2058284;28;19926;-50
2022/03/27 03:39:07;;;;;;;;;;;;;;;18.62;56.21;99559.22;2052881;28;19926;-50
2022/03/27 03:40:08;;;;;;;;;;;;;;;18.62;56.25;99567.28;2056704;28;20435;-51
2022/03/27 03:41:09;;;;;;;;;;;;;;;18.62;56.07;99565.41;2054823;28;20015;-49
2022/03/27 03:42:10;;;;;;;;;;;;;;;18.62;55.95;99561.91;2058361;28;19933;-52
2022/03/27 03:43:12;;;;;;;;;;;;;;;18.61;56.20;99561.06;2054511;28;19926;-50
2022/03/27 03:44:13;;;;;;;;;;;;;;;18.61;56.15;99561.06;2059145;28;19950;-51
2022/03/27 03:45:14;;;;;;;;;;;;;;;18.61;56.03;99562.91;2057089;28;19926;-51
2022/03/27 03:46:15;;;;;;;;;;;;;;;18.60;56.35;99559.38;2051843;28;20032;-52
2022/03/27 03:47:16;;;;;;;;;;;;;;;18.61;56.34;99565.59;2057703;28;20464;-51
2022/03/27 03:48:17;;;;;;;;;;;;;;;18.60;56.29;99563.94;2054269;28;20007;-50
2022/03/27 03:49:20;;;;;;;;;;;;;;;18.61;56.24;99560.22;2053098;28;19994;-50
2022/03/27 03:50:21;;;;;;;;;;;;;;;18.60;56.28;99559.38;2058232;28;20280;-51
2022/03/27 03:51:23;;;;;;;;;;;;;;;18.61;56.21;99554.84;2057356;28;20020;-51
2022/03/27 03:52:23;;;;;;;;;;;;;;;18.60;56.08;99563.94;2057197;28;19933;-51
2022/03/27 03:53:26;;;;;;;;;;;;;;;18.60;56.42;99561.25;2057574;28;19929;-52
2022/03/27 03:54:29;;;;;;;;;;;;;;;18.59;56.17;99559.56;2057836;28;19934;-52
2022/03/27 03:55:31;;;;;;;;;;;;;;;18.59;56.33;99557.72;2055594;28;20457;-52
2022/03/27 03:56:31;;;;;;;;;;;;;;;18.60;56.12;99563.94;2056185;28;19925;-49
2022/03/27 03:57:33;;;;;;;;;;;;;;;18.60;56.46;99559.38;2055061;28;19926;-50
2022/03/27 03:58:34;;;;;;;;;;;;;;;18.60;56.14;99558.56;2053817;28;19922;-52
2022/03/27 03:59:36;;;;;;;;;;;;;;;18.59;56.16;99563.09;2056723;28;19926;-51
2022/03/27 04:00:37;;;;;;;;;;;;;;;18.59;56.11;99562.28;2054596;28;19922;-52
2022/03/27 04:01:38;;;;;;;;;;;;;;;18.60;56.10;99563.94;2055504;28;20607;-53
2022/03/27 04:02:39;;;;;;;;;;;;;;;18.59;56.38;99559.56;2054253;28;19925;-50
2022/03/27 04:03:40;;;;;;;;;;;;;;;18.58;56.00;99560.56;2053999;28;20387;-49
2022/03/27 04:04:41;;;;;;;;;;;;;;;18.57;56.08;99564.28;2056907;28;19980;-51
2022/03/27 04:05:43;;;;;;;;;;;;;;;18.56;56.39;99558.09;2053753;28;20332;-49
2022/03/27 04:06:44;;;;;;;;;;;;;;;18.56;56.23;99557.25;2052271;28;19925;-51
2022/03/27 04:07:46;;;;;;;;;;;;;;;18.54;55.95;99563.63;2053372;28;19926;-52
2022/03/27 04:08:46;;;;;;;;;;;;;;;18.54;56.20;99560.94;2053554;28;19926;-49
2022/03/27 04:09:50;;;;;;;;;;;;;;;18.55;56.23;99561.78;2056086;28;20376;-51
2022/03/27 04:10:50;;;;;;;;;;;;;;;18.56;56.04;99559.94;2055603;28;19926;-52
2022/03/27 04:11:52;;;;;;;;;;;;;;;18.57;56.49;99558.91;2058609;28;19926;-51
2022/03/27 04:12:53;;;;;;;;;;;;;;;18.60;56.42;99558.56;2056287;28;20423;-51
2022/03/27 04:13:54;;;;;;;;;;;;;;;18.61;56.16;99553.00;2057997;28;19928;-52
2022/03/27 04:14:54;;;;;;;;;;;;;;;18.63;56.54;99555.50;2049129;28;20044;-49
2022/03/27 04:15:56;;;;;;;;;;;;;;;18.65;55.94;99561.53;2050379;28;19933;-51
2022/03/27 04:16:57;;;;;;;;;;;;;;;18.67;56.22;99556.81;2055671;28;19930;-51
2022/03/27 04:18:00;;;;;;;;;;;;;;;18.71;56.17;99555.44;2058006;28;19922;-51
2022/03/27 04:19:00;;;;;;;;;;;;;;;18.71;55.92;99556.25;2055172;28;19930;-49
2022/03/27 04:20:02;;;;;;;;;;;;;;;18.75;55.96;99556.78;2058702;28;20052;-50
2022/03/27 04:21:03;;;;;;;;;;;;;;;18.78;56.07;99556.41;2052682;28;19948;-51
2022/03/27 04:22:04;;;;;;;;;;;;;;;18.80;56.04;99559.72;2057835;28;19929;-49
2022/03/27 04:23:05;;;;;;;;;;;;;;;18.82;56.04;99552.34;2058157;28;20012;-50
2022/03/27 04:24:07;;;;;;;;;;;;;;;18.84;55.70;99560.22;2055456;28;19929;-50
2022/03/27 04:25:10;;;;;;;;;;;;;;;18.88;55.80;99561.53;2052501;28;19926;-52
2022/03/27 04:26:12;;;;;;;;;;;;;;;18.88;55.54;99562.34;2058212;28;19926;-52
2022/03/27 04:27:12;;;;;;;;;;;;;;;18.90;55.69;99559.50;2058918;28;19926;-50
2022/03/27 04:28:14;;;;;;;;;;;;;;;18.91;55.79;99553.09;2054439;28;19925;-52
2022/03/27 04:29:14;;;;;;;;;;;;;;;18.93;55.82;99562.63;2052369;28;20211;-49
2022/03/27 04:30:16;;;;;;;;;;;;;;;18.94;55.78;99560.78;2052807;28;19926;-52
2022/03/27 04:31:18;;;;;;;;;;;;;;;18.94;55.79;99558.94;2055088;28;20388;-50
2022/03/27 04:32:19;;;;;;;;;;;;;;;18.96;55.62;99559.56;2054144;28;19973;-49
2022/03/27 04:33:20;;;;;;;;;;;;;;;18.98;55.69;99568.31;2055800;28;19933;-50
2022/03/27 04:34:22;;;;;;;;;;;;;;;19.00;55.50;99560.06;2054100;28;19943;-49
2022/03/27 04:35:22;;;;;;;;;;;;;;;19.01;55.70;99561.72;2058012;28;19940;-50
2022/03/27 04:36:24;;;;;;;;;;;;;;;19.02;55.81;99562.56;2053581;28;20937;-49
2022/03/27 04:37:24;;;;;;;;;;;;;;;19.03;55.49;99564.22;2057499;28;19993;-51
2022/03/27 04:38:26;;;;;;;;;;;;;;;19.04;55.79;99566.72;2052503;28;19936;-51
2022/03/27 04:39:26;;;;;;;;;;;;;;;19.05;55.71;99564.88;2058638;28;20044;-50
2022/03/27 04:40:29;;;;;;;;;;;;;;;19.05;55.57;99568.41;2053926;28;19926;-51
2022/03/27 04:41:30;;;;;;;;;;;;;;;19.07;55.74;99568.22;2057167;28;20588;-51
2022/03/27 04:42:31;;;;;;;;;;;;;;;19.07;55.64;99570.91;2057057;28;19921;-54
2022/03/27 04:43:32;;;;;;;;;;;;;;;19.09;55.52;99576.94;2056893;28;19922;-52
2022/03/27 04:44:34;;;;;;;;;;;;;;;19.09;55.44;99574.25;2054324;28;19981;-49
2022/03/27 04:45:34;;;;;;;;;;;;;;;19.10;55.62;99573.22;2054339;28;19948;-50
2022/03/27 04:46:36;;;;;;;;;;;;;;;19.09;55.68;99572.41;2052705;28;19933;-52
2022/03/27 04:47:37;;;;;;;;;;;;;;;19.13;55.62;99578.25;2057586;28;19929;-49
2022/03/27 04:48:38;;;;;;;;;;;;;;;19.12;55.61;99574.72;2055544;28;19927;-51
2022/03/27 04:49:39;;;;;;;;;;;;;;;19.13;55.61;99570.16;2056717;28;19929;-50
2022/03/27 04:50:40;;;;;;;;;;;;;;;19.13;55.38;99575.56;2049815;28;19932;-51
2022/03/27 04:51:42;;;;;;;;;;;;;;;19.12;55.42;99572.03;2052313;28;20600;-49
2022/03/27 04:52:42;;;;;;;;;;;;;;;19.15;55.54;99578.91;2057639;28;20415;-50
2022/03/27 04:53:44;;;;;;;;;;;;;;;19.14;55.23;99572.69;2058845;28;19932;-53
2022/03/27 04:54:44;;;;;;;;;;;;;;;19.16;55.37;99578.69;2055630;28;19925;-50
2022/03/27 04:55:47;;;;;;;;;;;;;;;19.16;55.33;99573.31;2057450;28;19929;-51
2022/03/27 04:56:48;;;;;;;;;;;;;;;19.16;55.36;99575.19;2055992;28;19932;-51
2022/03/27 04:57:49;;;;;;;;;;;;;;;19.16;55.54;99578.69;2051868;28;19925;-52
2022/03/27 04:58:50;;;;;;;;;;;;;;;19.18;55.55;99578.53;2050915;28;19933;-53
2022/03/27 04:59:51;;;;;;;;;;;;;;;19.17;55.23;99579.56;2054617;28;19922;-51
2022/03/27 05:00:52;;;;;;;;;;;;;;;19.18;55.44;99581.22;2055229;28;19952;-49
2022/03/27 05:01:53;;;;;;;;;;;;;;;19.17;55.38;99572.31;2057340;28;20560;-50
2022/03/27 05:02:54;;;;;;;;;;;;;;;19.18;55.12;99573.16;2053085;28;20017;-51
2022/03/27 05:03:55;;;;;;;;;;;;;;;19.18;55.29;99576.66;2056786;28;20400;-49
2022/03/27 05:04:56;;;;;;;;;;;;;;;19.19;55.43;99575.66;2055427;28;19929;-50
2022/03/27 05:05:57;;;;;;;;;;;;;;;19.18;55.47;99579.34;2059257;28;20256;-52
2022/03/27 05:06:58;;;;;;;;;;;;;;;19.18;55.23;99570.47;2055264;28;19922;-49
2022/03/27 05:08:00;;;;;;;;;;;;;;;19.17;55.32;99572.31;2057599;28;19994;-49
2022/03/27 05:09:00;;;;;;;;;;;;;;;19.19;55.75;99580.19;2053221;28;19932;-52
2022/03/27 05:10:02;;;;;;;;;;;;;;;19.18;55.57;99576.66;2055376;28;20598;-52
2022/03/27 05:11:05;;;;;;;;;;;;;;;19.19;55.46;99574.81;2055085;28;19925;-51
2022/03/27 05:12:07;;;;;;;;;;;;;;;19.19;55.63;99580.19;2055503;28;20592;-52
2022/03/27 05:13:08;;;;;;;;;;;;;;;19.19;55.25;99574.81;2053855;28;21356;-52
2022/03/27 05:14:10;;;;;;;;;;;;;;;19.18;55.37;99576.66;2054870;28;20004;-50
2022/03/27 05:15:10;;;;;;;;;;;;;;;19.17;55.55;99579.56;2056201;28;20837;-54
2022/03/27 05:16:12;;;;;;;;;;;;;;;19.19;55.38;99580.19;2056137;28;19925;-52
2022/03/27 05:17:12;;;;;;;;;;;;;;;19.19;55.70;99581.03;2058368;28;20415;-52
2022/03/27 05:18:14;;;;;;;;;;;;;;;19.20;55.54;99587.25;2054964;28;20004;-49
2022/03/27 05:19:15;;;;;;;;;;;;;;;19.19;55.58;99582.88;2057171;28;19926;-51
2022/03/27 05:20:16;;;;;;;;;;;;;;;19.18;55.48;99584.75;2057239;28;19922;-51
2022/03/27 05:21:17;;;;;;;;;;;;;;;19.19;55.71;99575.66;2054921;28;19995;-52
2022/03/27 05:22:18;;;;;;;;;;;;;;;19.19;55.53;99588.25;2053592;28;20383;-52
2022/03/27 05:23:19;;;;;;;;;;;;;;;19.18;55.40;99586.59;2054119;28;20335;-51